Time;durP1;ratioP1;P1;durP2;ratioP2;P2;SDS_P1;SDS_P2;PMS_P1;PMS_P2;Temp;Humidity;BMP_temperature;BMP_pressure;BME280_temperature;BME280_humidity;BME280_pressure;Samples;Min_cycle;Max_cycle;Signal;HPM_P1;HPM_P2
2023/11/07 00:01:00;;;;;;;9.00;3.70;;;;;;;7.73;83.69;99572.86;130520;1267;106483;-80
2023/11/07 00:04:26;;;;;;;8.40;4.20;;;;;;;7.69;83.78;99574.55;130586;1261;109754;-80
2023/11/07 00:07:31;;;;;;;6.70;3.30;;;;;;;7.65;83.90;99582.54;130552;1262;106588;-78
2023/11/07 00:10:37;;;;;;;8.20;3.10;;;;;;;7.60;83.92;99584.95;130470;1262;108653;-81
2023/11/07 00:13:43;;;;;;;11.90;4.30;;;;;;;7.58;83.80;99592.98;130541;1262;108347;-79
2023/11/07 00:16:50;;;;;;;8.20;4.10;;;;;;;7.57;83.89;99592.88;130568;1261;107026;-81
2023/11/07 00:19:56;;;;;;;7.60;4.30;;;;;;;7.57;83.87;99592.01;130670;1260;106680;-79
2023/11/07 00:23:02;;;;;;;8.00;4.10;;;;;;;7.56;83.85;99593.20;130550;1260;109038;-78
2023/11/07 00:26:08;;;;;;;7.70;4.30;;;;;;;7.54;83.62;99592.45;130536;1256;107423;-79
2023/11/07 00:29:15;;;;;;;8.00;4.10;;;;;;;7.50;83.89;99593.77;130550;1256;107671;-79
2023/11/07 00:32:21;;;;;;;8.60;4.30;;;;;;;7.46;83.63;99594.11;130660;1269;108618;-80
2023/11/07 00:35:27;;;;;;;7.00;3.70;;;;;;;7.39;83.73;99598.00;130569;1264;107201;-79
2023/11/07 00:38:32;;;;;;;6.80;3.50;;;;;;;7.35;83.86;99602.98;130595;1256;106562;-79
2023/11/07 00:41:38;;;;;;;6.70;3.70;;;;;;;7.31;83.96;99602.64;130674;1261;108602;-79
2023/11/07 00:44:44;;;;;;;8.20;3.70;;;;;;;7.32;83.94;99602.92;130621;1271;108602;-79
2023/11/07 00:47:49;;;;;;;7.60;4.00;;;;;;;7.33;83.92;99600.70;130651;1269;107882;-79
2023/11/07 00:50:55;;;;;;;8.70;4.40;;;;;;;7.33;84.06;99605.41;130609;1262;108750;-79
2023/11/07 00:54:01;;;;;;;10.10;4.50;;;;;;;7.32;83.89;99601.84;130502;1262;107492;-79
2023/11/07 00:57:07;;;;;;;6.90;4.10;;;;;;;7.31;83.76;99603.02;130603;1262;106876;-79
2023/11/07 01:00:16;;;;;;;8.00;3.90;;;;;;;7.27;83.77;99605.98;130638;1260;108279;-78
2023/11/07 01:03:22;;;;;;;6.40;3.50;;;;;;;7.24;83.86;99612.11;130608;1262;107738;-78
2023/11/07 01:06:28;;;;;;;8.70;4.20;;;;;;;7.22;83.84;99605.77;130586;1269;107676;-78
2023/11/07 01:09:34;;;;;;;9.60;4.10;;;;;;;7.24;83.79;99608.94;130486;1262;107765;-78
2023/11/07 01:12:40;;;;;;;10.20;4.70;;;;;;;7.25;83.79;99612.00;130618;1260;108515;-77
2023/11/07 01:15:46;;;;;;;9.70;4.50;;;;;;;7.26;83.87;99613.19;130617;1262;107553;-78
2023/11/07 01:18:52;;;;;;;9.10;5.30;;;;;;;7.26;83.74;99611.08;130818;1262;108662;-78
2023/11/07 01:21:57;;;;;;;8.30;5.10;;;;;;;7.24;83.80;99604.92;130590;1262;106553;-78
2023/11/07 01:25:04;;;;;;;8.40;5.10;;;;;;;7.20;83.92;99603.33;130803;1260;108481;-78
2023/11/07 01:28:11;;;;;;;9.20;4.30;;;;;;;7.16;83.92;99607.60;130577;1263;107675;-78
2023/11/07 01:31:17;;;;;;;8.20;4.00;;;;;;;7.12;83.93;99606.41;130368;1262;108543;-79
2023/11/07 01:34:22;;;;;;;8.60;4.50;;;;;;;7.13;83.79;99604.60;130601;1260;108483;-78
2023/11/07 01:37:28;;;;;;;11.00;4.10;;;;;;;7.14;83.73;99608.02;130529;1270;108683;-78
2023/11/07 01:40:34;;;;;;;9.60;4.30;;;;;;;7.15;83.89;99614.30;130558;1268;106894;-78
2023/11/07 01:43:40;;;;;;;7.30;4.30;;;;;;;7.15;83.94;99607.07;130570;1260;106689;-78
2023/11/07 01:46:46;;;;;;;7.80;4.30;;;;;;;7.13;83.94;99605.85;130543;1260;108674;-78
2023/11/07 01:49:52;;;;;;;8.00;4.20;;;;;;;7.11;83.98;99606.70;130540;1270;107827;-78
2023/11/07 01:52:58;;;;;;;7.20;4.10;;;;;;;7.09;83.78;99607.42;130396;1260;108475;-78
2023/11/07 01:56:04;;;;;;;8.40;3.80;;;;;;;7.05;83.87;99607.44;130563;1263;107138;-78
2023/11/07 01:59:10;;;;;;;10.80;4.80;;;;;;;7.02;83.77;99606.81;130466;1268;107783;-79
2023/11/07 02:02:18;;;;;;;9.40;4.60;;;;;;;7.01;83.92;99609.72;130598;1258;107787;-79
2023/11/07 02:05:24;;;;;;;9.80;4.40;;;;;;;7.03;83.79;99611.11;130694;1262;108637;-79
2023/11/07 02:08:30;;;;;;;7.80;4.10;;;;;;;7.04;83.66;99610.69;130577;1269;108475;-79
2023/11/07 02:11:35;;;;;;;7.80;4.40;;;;;;;7.01;83.80;99611.19;130485;1257;106575;-80
2023/11/07 02:14:41;;;;;;;10.20;4.80;;;;;;;6.99;83.57;99618.41;130754;1269;108724;-78
2023/11/07 02:17:47;;;;;;;7.80;4.00;;;;;;;6.97;83.77;99617.61;130571;1260;107117;-79
2023/11/07 02:20:52;;;;;;;7.70;3.90;;;;;;;6.94;83.97;99622.27;130631;1257;108592;-79
2023/11/07 02:23:58;;;;;;;9.60;4.70;;;;;;;6.94;83.97;99620.89;130506;1262;107717;-80
2023/11/07 02:27:04;;;;;;;9.30;4.80;;;;;;;6.94;83.80;99619.43;130702;1266;107438;-80
2023/11/07 02:30:12;;;;;;;8.40;4.40;;;;;;;6.95;83.89;99615.98;130573;1270;107878;-79
2023/11/07 02:33:19;;;;;;;10.40;4.40;;;;;;;6.96;83.85;99613.98;130625;1263;108370;-79
2023/11/07 02:36:25;;;;;;;9.60;4.70;;;;;;;6.96;83.92;99609.21;130574;1269;108517;-79
2023/11/07 02:39:31;;;;;;;7.00;4.10;;;;;;;6.96;83.56;99614.35;130552;1264;108365;-79
2023/11/07 02:42:36;;;;;;;9.00;3.80;;;;;;;6.94;83.75;99612.77;130572;1261;108581;-79
2023/11/07 02:45:42;;;;;;;7.30;3.70;;;;;;;6.93;83.71;99619.89;130519;1258;107445;-79
2023/11/07 02:48:48;;;;;;;7.40;3.80;;;;;;;6.95;83.83;99619.75;130677;1262;107196;-79
2023/11/07 02:51:54;;;;;;;8.40;3.90;;;;;;;6.97;83.88;99622.14;130496;1263;108711;-79
2023/11/07 02:55:00;;;;;;;7.20;4.20;;;;;;;6.99;83.64;99622.35;130514;1258;106895;-79
2023/11/07 02:58:06;;;;;;;7.40;4.20;;;;;;;6.99;83.77;99617.88;130523;1270;106881;-79
2023/11/07 03:01:17;;;;;;;5.80;3.80;;;;;;;6.99;83.49;99613.27;130571;1269;107788;-78
2023/11/07 03:04:22;;;;;;;9.20;4.50;;;;;;;6.98;83.61;99613.52;130624;1260;108605;-78
2023/11/07 03:07:29;;;;;;;7.90;3.30;;;;;;;6.97;83.74;99609.23;130578;1270;108670;-78
2023/11/07 03:10:37;;;;;;;7.90;3.30;;;;;;;6.98;83.74;99612.36;130590;1261;107552;-78
2023/11/07 03:13:45;;;;;;;9.50;4.10;;;;;;;7.00;83.91;99617.06;130563;1260;107745;-78
2023/11/07 03:16:51;;;;;;;8.50;3.80;;;;;;;7.08;84.05;99625.52;130579;1260;108688;-79
2023/11/07 03:19:57;;;;;;;9.10;4.20;;;;;;;7.18;84.05;99622.85;130663;1267;107689;-80
2023/11/07 03:23:02;;;;;;;7.70;3.90;;;;;;;7.26;83.99;99627.34;130628;1261;107144;-78
2023/11/07 03:26:08;;;;;;;8.80;4.20;;;;;;;7.33;84.15;99631.66;130753;1261;107799;-78
2023/11/07 03:29:14;;;;;;;7.00;3.70;;;;;;;7.35;83.99;99640.27;130706;1256;106725;-76
2023/11/07 03:32:20;;;;;;;9.60;3.60;;;;;;;7.40;84.09;99641.21;130586;1257;108718;-77
2023/11/07 03:35:27;;;;;;;10.00;3.80;;;;;;;7.47;84.05;99641.55;130980;1256;107389;-78
2023/11/07 03:38:32;;;;;;;17.50;11.30;;;;;;;7.55;84.05;99646.72;134512;1257;106428;-77
2023/11/07 03:41:41;;;;;;;30.20;20.50;;;;;;;7.63;84.00;99646.45;134644;1257;108606;-78
2023/11/07 03:44:47;;;;;;;19.30;12.20;;;;;;;7.72;84.04;99655.31;134575;1257;107057;-76
2023/11/07 03:47:52;;;;;;;13.90;10.20;;;;;;;7.79;83.83;99655.02;134583;1257;106735;-76
2023/11/07 03:50:59;;;;;;;9.50;5.90;;;;;;;7.86;83.97;99655.20;131751;1260;108617;-75
2023/11/07 03:54:05;;;;;;;5.80;3.70;;;;;;;7.92;83.96;99653.35;130769;1258;108021;-75
2023/11/07 03:57:10;;;;;;;6.80;3.50;;;;;;;7.99;84.03;99654.85;130716;1258;105855;-76
2023/11/07 04:00:19;;;;;;;6.50;3.70;;;;;;;8.04;84.02;99651.48;130823;1257;106827;-76
2023/11/07 04:03:24;;;;;;;10.80;5.60;;;;;;;8.13;84.03;99650.80;130644;1261;106657;-75
2023/11/07 04:06:30;;;;;;;12.40;6.20;;;;;;;8.20;83.83;99653.59;130648;1261;107851;-76
2023/11/07 04:09:36;;;;;;;32.10;15.00;;;;;;;8.26;83.81;99653.87;130627;1269;106181;-76
2023/11/07 04:12:42;;;;;;;10.20;5.90;;;;;;;8.31;83.75;99651.33;130551;1260;106517;-76
2023/11/07 04:15:48;;;;;;;8.30;4.10;;;;;;;8.32;83.79;99650.50;130607;1269;106539;-75
2023/11/07 04:18:54;;;;;;;8.80;4.20;;;;;;;8.32;83.80;99650.70;130637;1257;108595;-76
2023/11/07 04:22:00;;;;;;;6.60;3.90;;;;;;;8.34;83.79;99649.81;130557;1260;109121;-77
2023/11/07 04:25:07;;;;;;;25.60;14.00;;;;;;;8.34;83.88;99648.83;130531;1261;108067;-76
2023/11/07 04:28:16;;;;;;;23.30;11.40;;;;;;;8.37;83.90;99647.98;130492;1269;108845;-76
2023/11/07 04:31:22;;;;;;;12.70;5.90;;;;;;;8.43;83.97;99649.19;130448;1260;107453;-77
2023/11/07 04:34:28;;;;;;;136.30;47.90;;;;;;;8.48;83.89;99655.84;130421;1261;106597;-77
2023/11/07 04:37:34;;;;;;;56.30;26.10;;;;;;;8.51;83.79;99654.67;130487;1260;108493;-76
2023/11/07 04:40:40;;;;;;;18.80;8.60;;;;;;;8.51;83.73;99656.73;130463;1269;109086;-77
2023/11/07 04:43:46;;;;;;;27.50;13.10;;;;;;;8.50;83.80;99660.76;130220;1258;107621;-78
2023/11/07 04:46:52;;;;;;;12.90;6.80;;;;;;;8.49;83.90;99662.44;130413;1261;106595;-75
2023/11/07 04:49:59;;;;;;;9.20;5.20;;;;;;;8.52;83.78;99667.70;130593;1257;108861;-75
2023/11/07 04:53:04;;;;;;;63.30;24.30;;;;;;;8.54;84.05;99673.64;130527;1261;106582;-75
2023/11/07 04:56:11;;;;;;;74.40;28.20;;;;;;;8.56;84.10;99674.83;130545;1260;108698;-77
2023/11/07 04:59:17;;;;;;;14.50;7.50;;;;;;;8.59;84.16;99677.23;130553;1260;107697;-76
2023/11/07 05:02:23;;;;;;;9.50;5.10;;;;;;;8.58;84.38;99677.53;130526;1260;108862;-76
2023/11/07 05:05:30;;;;;;;10.80;7.30;;;;;;;8.57;84.71;99676.73;130497;1257;106939;-75
2023/11/07 05:08:36;;;;;;;31.70;16.70;;;;;;;8.55;84.88;99680.27;130489;1260;107723;-75
2023/11/07 05:11:43;;;;;;;90.90;34.10;;;;;;;8.55;84.87;99683.80;130499;1260;107779;-76
2023/11/07 05:14:49;;;;;;;73.40;37.10;;;;;;;8.58;84.97;99685.64;130457;1261;107664;-75
2023/11/07 05:17:55;;;;;;;84.40;30.80;;;;;;;8.62;84.97;99685.84;130517;1260;108090;-75
2023/11/07 05:21:00;;;;;;;47.50;20.70;;;;;;;8.64;85.10;99693.77;130565;1258;107073;-75
2023/11/07 05:24:07;;;;;;;65.80;22.50;;;;;;;8.64;85.26;99695.52;130500;1262;108728;-75
2023/11/07 05:27:13;;;;;;;75.90;26.90;;;;;;;8.62;85.18;99696.27;130459;1260;108628;-75
2023/11/07 05:30:19;;;;;;;289.20;74.30;;;;;;;8.62;85.23;99702.48;130477;1270;108083;-76
2023/11/07 05:33:24;;;;;;;653.90;178.00;;;;;;;8.62;85.23;99704.59;130531;1260;108590;-76
2023/11/07 05:36:30;;;;;;;718.80;230.00;;;;;;;8.63;85.37;99699.02;130539;1260;106564;-76
2023/11/07 05:39:36;;;;;;;508.00;174.50;;;;;;;8.64;85.18;99696.20;130481;1261;107782;-76
2023/11/07 05:42:42;;;;;;;572.60;227.70;;;;;;;8.67;85.31;99698.77;130508;1260;107309;-75
2023/11/07 05:45:47;;;;;;;136.20;47.90;;;;;;;8.69;85.30;99703.04;130511;1261;107210;-76
2023/11/07 05:48:53;;;;;;;91.40;44.10;;;;;;;8.68;85.34;99701.70;130486;1260;106964;-76
2023/11/07 05:51:59;;;;;;;27.00;16.60;;;;;;;8.64;85.25;99708.77;130525;1261;107845;-76
2023/11/07 05:55:06;;;;;;;30.20;21.30;;;;;;;8.64;85.28;99713.80;130469;1260;107252;-76
2023/11/07 05:58:12;;;;;;;22.80;17.00;;;;;;;8.64;85.47;99714.67;130405;1271;108591;-75
2023/11/07 06:01:18;;;;;;;13.60;8.00;;;;;;;8.64;85.58;99708.66;130482;1260;109023;-76
2023/11/07 06:04:34;;;;;;;9.90;4.60;;;;;;;8.70;85.39;99719.04;130552;1260;105671;-76
2023/11/07 06:07:40;;;;;;;7.80;3.80;;;;;;;8.71;85.44;99720.05;130552;1260;106809;-75
2023/11/07 06:10:46;;;;;;;9.80;7.00;;;;;;;8.72;85.51;99724.70;130487;1260;106501;-76
2023/11/07 06:13:52;;;;;;;10.40;6.00;;;;;;;8.72;85.49;99724.70;130549;1270;106701;-76
2023/11/07 06:16:57;;;;;;;11.80;8.60;;;;;;;8.71;85.42;99728.53;130423;1261;106905;-77
2023/11/07 06:20:03;;;;;;;8.60;5.40;;;;;;;8.70;85.39;99738.24;130552;1260;106509;-76
2023/11/07 06:23:09;;;;;;;71.70;26.20;;;;;;;8.69;85.56;99738.85;130466;1260;107379;-76
2023/11/07 06:26:14;;;;;;;410.90;177.40;;;;;;;8.67;85.62;99742.56;130491;1261;106890;-76
2023/11/07 06:29:20;;;;;;;124.70;58.40;;;;;;;8.67;85.43;99746.11;130461;1257;108383;-76
2023/11/07 06:32:26;;;;;;;21.40;15.20;;;;;;;8.64;85.37;99747.45;130481;1258;107532;-76
2023/11/07 06:35:32;;;;;;;13.40;8.20;;;;;;;8.63;85.46;99756.42;130476;1269;107651;-77
2023/11/07 06:38:38;;;;;;;7.30;4.70;;;;;;;8.64;85.46;99759.72;130482;1256;106300;-76
2023/11/07 06:41:43;;;;;;;6.60;3.90;;;;;;;8.67;85.70;99759.25;130466;1261;106549;-76
2023/11/07 06:44:49;;;;;;;14.50;7.50;;;;;;;8.70;85.69;99765.89;130463;1260;107478;-76
2023/11/07 06:47:55;;;;;;;8.20;3.90;;;;;;;8.73;85.78;99763.11;130503;1261;108549;-75
2023/11/07 06:51:02;;;;;;;8.10;4.30;;;;;;;8.76;85.53;99767.41;130562;1261;108663;-77
2023/11/07 06:54:08;;;;;;;6.00;3.20;;;;;;;8.77;85.71;99767.67;130506;1261;106932;-76
2023/11/07 06:57:14;;;;;;;5.40;3.10;;;;;;;8.78;85.58;99772.91;130453;1256;106611;-76
2023/11/07 07:00:24;;;;;;;7.30;3.20;;;;;;;8.81;85.76;99773.27;130514;1261;108627;-75
2023/11/07 07:03:30;;;;;;;6.00;3.00;;;;;;;8.87;85.80;99777.14;130455;1257;108767;-75
2023/11/07 07:06:35;;;;;;;5.10;2.80;;;;;;;8.93;85.72;99774.70;130546;1260;107829;-75
2023/11/07 07:09:41;;;;;;;5.20;3.00;;;;;;;8.99;85.44;99778.70;130392;1260;108645;-75
2023/11/07 07:12:47;;;;;;;5.80;2.70;;;;;;;9.05;85.51;99782.23;130375;1256;109428;-75
2023/11/07 07:15:52;;;;;;;5.20;2.90;;;;;;;9.08;85.30;99783.15;130454;1256;107024;-75
2023/11/07 07:18:58;;;;;;;18.10;14.30;;;;;;;9.12;85.38;99785.26;130512;1261;107534;-75
2023/11/07 07:22:05;;;;;;;14.00;10.80;;;;;;;9.18;85.54;99789.29;130472;1257;107071;-75
2023/11/07 07:25:15;;;;;;;8.30;4.50;;;;;;;9.26;85.83;99796.46;130555;1261;107756;-74
2023/11/07 07:28:21;;;;;;;9.90;8.00;;;;;;;9.34;85.73;99799.90;130518;1260;106785;-73
2023/11/07 07:31:27;;;;;;;14.50;9.40;;;;;;;9.36;85.66;99802.98;130488;1260;108653;-74
2023/11/07 07:34:33;;;;;;;16.10;11.70;;;;;;;9.40;85.69;99804.01;130571;1260;107783;-74
2023/11/07 07:37:38;;;;;;;11.00;6.90;;;;;;;9.49;85.67;99809.21;130484;1260;108537;-74
2023/11/07 07:40:44;;;;;;;9.80;4.20;;;;;;;9.59;86.01;99811.36;130501;1256;107252;-73
2023/11/07 07:43:51;;;;;;;5.30;3.10;;;;;;;9.71;85.67;99815.59;130447;1260;106760;-72
2023/11/07 07:46:57;;;;;;;6.50;3.60;;;;;;;9.82;85.71;99812.73;130459;1258;108394;-72
2023/11/07 07:50:09;;;;;;;7.40;3.40;;;;;;;9.90;85.52;99814.04;130489;1260;107912;-72
2023/11/07 07:53:15;;;;;;;6.50;3.90;;;;;;;9.94;85.44;99819.86;130476;1256;108680;-72
2023/11/07 07:56:21;;;;;;;8.10;4.10;;;;;;;9.91;85.23;99818.88;130550;1256;107128;-74
2023/11/07 07:59:27;;;;;;;7.60;5.10;;;;;;;9.88;85.28;99824.02;130451;1261;108334;-73
2023/11/07 08:02:33;;;;;;;8.50;3.80;;;;;;;9.82;85.40;99831.05;130487;1256;108629;-72
2023/11/07 08:05:39;;;;;;;7.00;3.70;;;;;;;9.78;85.25;99834.83;130496;1258;108222;-73
2023/11/07 08:08:45;;;;;;;6.20;3.70;;;;;;;9.79;85.62;99834.48;130482;1261;107873;-72
2023/11/07 08:11:53;;;;;;;7.00;3.20;;;;;;;9.86;85.56;99835.80;130474;1260;107576;-73
2023/11/07 08:14:59;;;;;;;6.70;3.60;;;;;;;9.94;85.75;99835.14;130476;1260;108671;-73
2023/11/07 08:18:06;;;;;;;4.50;3.10;;;;;;;10.01;85.37;99831.68;130512;1269;107744;-72
2023/11/07 08:21:11;;;;;;;5.40;4.00;;;;;;;10.09;85.51;99834.28;130547;1261;107073;-73
2023/11/07 08:24:17;;;;;;;5.70;3.60;;;;;;;10.17;85.48;99834.98;130368;1257;107798;-72
2023/11/07 08:27:23;;;;;;;5.40;2.80;;;;;;;10.28;85.69;99834.42;130796;1256;106661;-72
2023/11/07 08:30:29;;;;;;;4.50;2.50;;;;;;;10.44;85.59;99838.77;130422;1262;107701;-73
2023/11/07 08:33:37;;;;;;;4.40;2.60;;;;;;;10.65;85.10;99835.31;130468;1261;107815;-72
2023/11/07 08:36:43;;;;;;;5.70;2.80;;;;;;;10.84;85.17;99832.08;130531;1260;106282;-74
2023/11/07 08:39:49;;;;;;;4.70;2.60;;;;;;;10.98;84.61;99830.52;130472;1260;106751;-73
2023/11/07 08:42:55;;;;;;;5.00;2.30;;;;;;;11.10;84.63;99833.70;130496;1260;107988;-73
2023/11/07 08:46:01;;;;;;;3.40;2.50;;;;;;;11.22;84.54;99834.86;130502;1257;108708;-73
2023/11/07 08:49:07;;;;;;;4.20;2.40;;;;;;;11.30;84.50;99839.20;130515;1260;108578;-72
2023/11/07 08:52:14;;;;;;;8.40;2.40;;;;;;;11.38;84.29;99843.10;130553;1260;106599;-74
2023/11/07 08:55:19;;;;;;;3.90;2.20;;;;;;;11.47;84.35;99846.20;130514;1260;108709;-72
2023/11/07 08:58:26;;;;;;;5.50;2.40;;;;;;;11.59;83.57;99845.14;130431;1256;107770;-72
2023/11/07 09:01:31;;;;;;;3.50;2.30;;;;;;;11.69;83.05;99849.69;130515;1256;107834;-72
2023/11/07 09:04:37;;;;;;;6.70;2.50;;;;;;;11.80;83.36;99851.48;130567;1257;106618;-72
2023/11/07 09:07:43;;;;;;;3.20;2.10;;;;;;;11.93;83.13;99852.56;130507;1260;107614;-72
2023/11/07 09:10:49;;;;;;;4.40;2.10;;;;;;;12.04;82.82;99853.27;130535;1256;106916;-72
2023/11/07 09:13:54;;;;;;;3.50;2.10;;;;;;;12.11;82.03;99855.92;130495;1261;107713;-72
2023/11/07 09:17:00;;;;;;;3.90;2.20;;;;;;;12.14;82.03;99857.55;130517;1260;107666;-75
2023/11/07 09:20:09;;;;;;;3.90;1.90;;;;;;;12.15;81.78;99861.99;130514;1256;108258;-72
2023/11/07 09:23:15;;;;;;;3.90;2.10;;;;;;;12.21;81.60;99864.11;130626;1260;107447;-74
2023/11/07 09:26:21;;;;;;;3.20;2.20;;;;;;;12.25;80.91;99863.79;130486;1261;107520;-73
2023/11/07 09:29:27;;;;;;;3.60;2.00;;;;;;;12.23;80.71;99864.36;130499;1256;106387;-75
2023/11/07 09:32:32;;;;;;;3.30;1.80;;;;;;;12.25;81.32;99869.17;130548;1260;106614;-74
2023/11/07 09:35:38;;;;;;;3.10;1.70;;;;;;;12.28;81.13;99873.77;130448;1256;106859;-72
2023/11/07 09:38:44;;;;;;;3.10;1.80;;;;;;;12.33;80.84;99871.27;130408;1261;107800;-72
2023/11/07 09:41:50;;;;;;;3.10;1.80;;;;;;;12.42;81.10;99872.92;130456;1261;108581;-72
2023/11/07 09:44:57;;;;;;;4.90;2.30;;;;;;;12.52;80.95;99874.09;130456;1260;107128;-72
2023/11/07 09:48:09;;;;;;;3.00;1.70;;;;;;;12.56;80.55;99881.43;130470;1261;107825;-73
2023/11/07 09:51:18;;;;;;;4.00;2.00;;;;;;;12.60;80.44;99881.63;130456;1257;107522;-73
2023/11/07 09:54:27;;;;;;;2.80;1.80;;;;;;;12.64;80.39;99885.27;130340;1261;107675;-73
2023/11/07 09:57:36;;;;;;;3.00;1.80;;;;;;;12.69;80.40;99882.76;130492;1260;106828;-74
2023/11/07 10:00:44;;;;;;;5.70;2.20;;;;;;;12.72;79.96;99883.72;130542;1256;108541;-73
2023/11/07 10:03:51;;;;;;;3.00;1.90;;;;;;;12.72;80.28;99887.17;130555;1260;106653;-74
2023/11/07 10:06:58;;;;;;;3.40;2.00;;;;;;;12.79;80.48;99879.85;130589;1260;108679;-74
2023/11/07 10:10:05;;;;;;;3.00;1.90;;;;;;;12.85;80.04;99877.50;130452;1261;107658;-73
2023/11/07 10:13:12;;;;;;;4.10;2.00;;;;;;;12.92;79.81;99872.90;130578;1259;107038;-73
2023/11/07 10:16:18;;;;;;;3.60;2.10;;;;;;;12.94;79.58;99872.35;130548;1256;106953;-74
2023/11/07 10:19:25;;;;;;;3.00;1.90;;;;;;;12.97;79.57;99872.90;130461;1261;108637;-74
2023/11/07 10:22:30;;;;;;;2.90;1.90;;;;;;;13.02;79.23;99873.56;130603;1261;107408;-73
2023/11/07 10:25:38;;;;;;;2.80;1.80;;;;;;;13.04;79.09;99876.16;130802;1262;107480;-73
2023/11/07 10:28:44;;;;;;;3.20;1.80;;;;;;;13.04;78.24;99873.92;130576;1256;106551;-74
2023/11/07 10:32:00;;;;;;;2.90;2.00;;;;;;;13.04;78.65;99873.92;130600;1258;107431;-74
2023/11/07 10:35:07;;;;;;;3.40;1.70;;;;;;;13.06;78.81;99871.53;130725;1256;108487;-74
2023/11/07 10:38:14;;;;;;;3.20;1.60;;;;;;;13.08;78.42;99866.63;130470;1260;108587;-74
2023/11/07 10:41:29;;;;;;;2.30;1.40;;;;;;;13.09;78.18;99865.21;130436;1257;107595;-72
2023/11/07 10:44:35;;;;;;;5.30;1.80;;;;;;;13.12;77.70;99870.08;130272;1256;207202;-73
2023/11/07 10:47:42;;;;;;;3.70;1.50;;;;;;;13.14;77.97;99870.70;130699;1260;105775;-72
2023/11/07 10:50:49;;;;;;;3.30;1.90;;;;;;;13.14;77.90;99869.30;130632;1260;107818;-74
2023/11/07 10:53:55;;;;;;;3.30;1.60;;;;;;;13.18;77.89;99866.52;130569;1256;109387;-73
2023/11/07 10:57:05;;;;;;;1.80;1.30;;;;;;;13.22;77.73;99866.17;130568;1261;108166;-73
2023/11/07 11:00:13;;;;;;;2.60;1.20;;;;;;;13.26;77.02;99866.30;130485;1261;108647;-73
2023/11/07 11:03:19;;;;;;;2.60;1.30;;;;;;;13.23;76.30;99864.70;130728;1256;108619;-73
2023/11/07 11:06:26;;;;;;;3.70;1.70;;;;;;;13.20;76.68;99863.29;130672;1259;107953;-73
2023/11/07 11:09:33;;;;;;;2.70;1.30;;;;;;;13.21;75.90;99867.42;130357;1262;108825;-72
2023/11/07 11:12:42;;;;;;;2.00;1.40;;;;;;;13.19;76.38;99864.73;130568;1260;107125;-72
2023/11/07 11:15:49;;;;;;;2.60;1.60;;;;;;;13.22;76.01;99862.70;130494;1256;109255;-72
2023/11/07 11:19:00;;;;;;;3.20;1.70;;;;;;;13.24;75.62;99861.92;130509;1262;107577;-72
2023/11/07 11:22:16;;;;;;;3.10;1.70;;;;;;;13.24;75.87;99865.23;130654;1270;107618;-73
2023/11/07 11:25:32;;;;;;;3.00;1.60;;;;;;;13.28;75.79;99866.07;130457;1258;108628;-75
2023/11/07 11:28:42;;;;;;;3.00;1.60;;;;;;;13.23;75.07;99860.79;130425;1260;108746;-76
2023/11/07 11:31:48;;;;;;;3.30;1.60;;;;;;;13.18;75.66;99862.10;130353;1257;107756;-75
2023/11/07 11:34:58;;;;;;;2.20;1.40;;;;;;;13.23;75.62;99858.90;130547;1261;107787;-74
2023/11/07 11:38:12;;;;;;;3.40;1.70;;;;;;;13.28;74.82;99861.01;130529;1259;107045;-76
2023/11/07 11:41:17;;;;;;;2.40;1.60;;;;;;;13.28;73.91;99864.02;130557;1261;106538;-74
2023/11/07 11:44:24;;;;;;;2.50;1.30;;;;;;;13.37;74.31;99862.75;130540;1256;106734;-74
2023/11/07 11:47:51;;;;;;;2.70;1.60;;;;;;;13.39;74.52;99864.14;130512;1260;106905;-75
2023/11/07 11:51:27;;;;;;;2.60;1.60;;;;;;;13.40;74.59;99861.71;130465;1261;107622;-75
2023/11/07 11:54:54;;;;;;;3.40;1.70;;;;;;;13.34;74.48;99862.73;130407;1261;108711;-75
2023/11/07 11:58:23;;;;;;;2.00;1.50;;;;;;;13.29;74.47;99861.84;130489;1256;108033;-73
2023/11/07 12:01:32;;;;;;;2.40;1.40;;;;;;;13.26;74.70;99857.17;130473;1260;106636;-75
2023/11/07 12:04:40;;;;;;;2.80;1.50;;;;;;;13.27;74.43;99857.94;130577;1256;106621;-74
2023/11/07 12:07:46;;;;;;;4.00;1.60;;;;;;;13.23;74.32;99863.59;130541;1262;107246;-77
2023/11/07 12:10:58;;;;;;;1.90;1.40;;;;;;;13.19;73.84;99857.46;130481;1261;107537;-74
2023/11/07 12:14:03;;;;;;;;;;;;;;;13.20;74.05;99853.98;130490;1258;106913;-74
2023/11/07 12:17:10;;;;;;;3.10;1.30;;;;;;;13.28;74.13;99852.89;130419;1260;106932;-75
2023/11/07 12:20:18;;;;;;;3.30;1.20;;;;;;;13.34;73.73;99855.31;130578;1262;106585;-77
2023/11/07 12:23:26;;;;;;;3.00;1.40;;;;;;;13.45;72.93;99854.30;130469;1260;106667;-77
2023/11/07 12:26:43;;;;;;;3.00;1.10;;;;;;;13.54;72.55;99854.86;130530;1260;106411;-76
2023/11/07 12:29:49;;;;;;;2.50;1.40;;;;;;;13.54;72.00;99852.43;130461;1256;106975;-76
2023/11/07 12:33:02;;;;;;;4.00;1.30;;;;;;;13.49;72.52;99852.30;130602;1260;108863;-77
2023/11/07 12:36:10;;;;;;;4.20;1.20;;;;;;;13.49;72.73;99852.71;130562;1258;107431;-77
2023/11/07 12:39:15;;;;;;;2.80;1.40;;;;;;;13.50;72.51;99855.33;130623;1261;107928;-77
2023/11/07 12:42:23;;;;;;;2.50;1.20;;;;;;;13.48;72.34;99852.83;130479;1259;107624;-77
2023/11/07 12:45:31;;;;;;;2.40;1.30;;;;;;;13.47;72.42;99852.46;130521;1261;106362;-75
2023/11/07 12:48:37;;;;;;;2.10;1.20;;;;;;;13.41;71.67;99855.80;130489;1261;106480;-77
2023/11/07 12:51:44;;;;;;;2.00;1.10;;;;;;;13.30;72.01;99855.08;130497;1260;107668;-77
2023/11/07 12:54:50;;;;;;;3.00;1.30;;;;;;;13.24;72.00;99860.94;130345;1261;106753;-76
2023/11/07 12:57:56;;;;;;;6.40;1.20;;;;;;;13.12;71.62;99858.45;130438;1260;108611;-76
2023/11/07 13:01:04;;;;;;;3.80;1.20;;;;;;;13.03;71.73;99860.36;130523;1258;106727;-77
2023/11/07 13:04:14;;;;;;;6.90;4.30;;;;;;;12.94;71.43;99859.86;130624;1257;106997;-77
2023/11/07 13:07:20;;;;;;;3.10;1.50;;;;;;;12.84;71.43;99858.12;130521;1261;107711;-77
2023/11/07 13:10:25;;;;;;;2.10;1.10;;;;;;;12.76;71.00;99859.45;130485;1261;107220;-76
2023/11/07 13:13:31;;;;;;;1.90;1.10;;;;;;;12.70;71.25;99856.70;130538;1260;109017;-77
2023/11/07 13:16:37;;;;;;;2.60;1.00;;;;;;;12.66;71.31;99859.10;130505;1260;106629;-77
2023/11/07 13:19:42;;;;;;;2.60;1.20;;;;;;;12.63;71.38;99856.32;130503;1261;106591;-76
2023/11/07 13:22:48;;;;;;;3.60;1.10;;;;;;;12.58;71.44;99855.54;130561;1261;108510;-77
2023/11/07 13:25:53;;;;;;;1.80;1.10;;;;;;;12.51;71.39;99856.71;130461;1260;107012;-76
2023/11/07 13:28:59;;;;;;;4.00;1.10;;;;;;;12.45;71.53;99858.92;130523;1257;107749;-76
2023/11/07 13:32:06;;;;;;;2.70;1.20;;;;;;;12.36;71.44;99856.89;130474;1256;108405;-77
2023/11/07 13:35:12;;;;;;;2.40;1.50;;;;;;;12.25;71.44;99859.51;130565;1257;108629;-77
2023/11/07 13:38:18;;;;;;;2.50;1.30;;;;;;;12.16;71.71;99861.55;130550;1256;106553;-75
2023/11/07 13:41:23;;;;;;;30.30;23.00;;;;;;;12.09;71.72;99863.28;130486;1260;107002;-75
2023/11/07 13:44:29;;;;;;;150.10;101.40;;;;;;;12.01;71.73;99860.94;130554;1257;108667;-75
2023/11/07 13:47:35;;;;;;;255.80;138.40;;;;;;;11.95;71.49;99863.23;130453;1256;106799;-75
2023/11/07 13:50:44;;;;;;;52.70;31.00;;;;;;;11.90;71.50;99866.64;130610;1262;107691;-75
2023/11/07 13:53:50;;;;;;;17.00;10.90;;;;;;;11.88;71.50;99863.15;130457;1261;108579;-74
2023/11/07 13:56:56;;;;;;;9.90;6.00;;;;;;;11.85;71.44;99863.39;130593;1260;106607;-76
2023/11/07 14:00:02;;;;;;;7.40;5.00;;;;;;;11.86;71.29;99860.15;130609;1260;106425;-75
2023/11/07 14:03:17;;;;;;;7.90;5.20;;;;;;;11.82;71.28;99864.44;130596;1260;108356;-75
2023/11/07 14:06:23;;;;;;;5.90;3.90;;;;;;;11.77;71.22;99868.36;130574;1256;108420;-76
2023/11/07 14:09:28;;;;;;;4.10;2.60;;;;;;;11.73;71.43;99866.19;131089;1260;107697;-74
2023/11/07 14:12:38;;;;;;;3.10;2.10;;;;;;;11.69;71.41;99869.84;130488;1260;108422;-76
2023/11/07 14:15:44;;;;;;;6.00;2.90;;;;;;;11.64;71.56;99872.69;130533;1261;107412;-75
2023/11/07 14:18:50;;;;;;;8.90;5.40;;;;;;;11.60;71.47;99874.00;130515;1261;108722;-75
2023/11/07 14:21:56;;;;;;;12.40;9.60;;;;;;;11.57;71.73;99873.86;130499;1261;107818;-75